Arickaree, Colorado
Current Conditions -  °F | °C
As of 10:55 AM on Sunday 25 Jan 2015 (Local Time) from KLIC Reporting Station
Overcast Overcast  
Wind Chill: 42°   Ceiling: 8000
Heat Index: 45°   Visibility: 10mi
Dew Point: 27°   Wind: 6mph
Humidity: 49%   Direction: 270°W
Pressure: 30.19"   Gusts: NA
Location:  39.6673°N, 103.47°W
Report Text: KLIC 251755Z AUTO 27005KT 10SM OVC080 07/M03 A3019 RMK AO2 SLP214 T00721028 10072 21022 51010
Loading
Personal Weather Stations






























Interactive Weather Map New forecast layout! Learn more

10-Day Weather Forecast

Advertisements
Track Severe Weather on mobile